sensor_id;sensor_type;location;lat;lon;timestamp;P1;durP1;ratioP1;P2;durP2;ratioP2
1577;SDS011;57623;53.608;10.004;2023-08-12T00:01:04;5.60;;;5.20;;
1577;SDS011;57623;53.608;10.004;2023-08-12T00:03:32;5.60;;;5.20;;
1577;SDS011;57623;53.608;10.004;2023-08-12T00:06:00;5.90;;;5.50;;
1577;SDS011;57623;53.608;10.004;2023-08-12T00:08:31;6.83;;;5.30;;
1577;SDS011;57623;53.608;10.004;2023-08-12T00:10:59;5.57;;;4.83;;
1577;SDS011;57623;53.608;10.004;2023-08-12T00:13:27;5.37;;;4.97;;
1577;SDS011;57623;53.608;10.004;2023-08-12T00:15:55;7.73;;;5.77;;
1577;SDS011;57623;53.608;10.004;2023-08-12T00:18:24;5.17;;;4.87;;
1577;SDS011;57623;53.608;10.004;2023-08-12T00:20:52;5.37;;;4.97;;
1577;SDS011;57623;53.608;10.004;2023-08-12T00:23:21;5.40;;;5.00;;
1577;SDS011;57623;53.608;10.004;2023-08-12T00:25:49;5.37;;;4.97;;
1577;SDS011;57623;53.608;10.004;2023-08-12T00:28:17;4.60;;;4.30;;
1577;SDS011;57623;53.608;10.004;2023-08-12T00:30:47;5.07;;;4.70;;
1577;SDS011;57623;53.608;10.004;2023-08-12T00:33:15;4.90;;;4.60;;
1577;SDS011;57623;53.608;10.004;2023-08-12T00:35:46;5.10;;;4.70;;
1577;SDS011;57623;53.608;10.004;2023-08-12T00:38:14;6.00;;;4.43;;
1577;SDS011;57623;53.608;10.004;2023-08-12T00:40:42;5.13;;;4.83;;
1577;SDS011;57623;53.608;10.004;2023-08-12T00:43:10;5.20;;;4.80;;
1577;SDS011;57623;53.608;10.004;2023-08-12T00:45:38;5.27;;;4.87;;
1577;SDS011;57623;53.608;10.004;2023-08-12T00:48:07;5.53;;;5.03;;
1577;SDS011;57623;53.608;10.004;2023-08-12T00:50:39;4.53;;;4.23;;
1577;SDS011;57623;53.608;10.004;2023-08-12T00:53:10;4.93;;;4.40;;
1577;SDS011;57623;53.608;10.004;2023-08-12T00:55:40;5.33;;;4.83;;
1577;SDS011;57623;53.608;10.004;2023-08-12T00:58:08;7.07;;;4.50;;
1577;SDS011;57623;53.608;10.004;2023-08-12T01:00:36;4.67;;;4.23;;
1577;SDS011;57623;53.608;10.004;2023-08-12T01:03:05;6.70;;;4.50;;
1577;SDS011;57623;53.608;10.004;2023-08-12T01:05:33;5.87;;;5.00;;
1577;SDS011;57623;53.608;10.004;2023-08-12T01:08:05;4.67;;;4.20;;
1577;SDS011;57623;53.608;10.004;2023-08-12T01:10:35;4.50;;;4.20;;
1577;SDS011;57623;53.608;10.004;2023-08-12T01:13:07;5.77;;;4.67;;
1577;SDS011;57623;53.608;10.004;2023-08-12T01:15:44;5.07;;;4.53;;
1577;SDS011;57623;53.608;10.004;2023-08-12T01:18:13;4.70;;;4.30;;
1577;SDS011;57623;53.608;10.004;2023-08-12T01:20:42;5.43;;;4.53;;
1577;SDS011;57623;53.608;10.004;2023-08-12T01:23:12;5.17;;;4.67;;
1577;SDS011;57623;53.608;10.004;2023-08-12T01:25:40;5.40;;;4.63;;
1577;SDS011;57623;53.608;10.004;2023-08-12T01:28:09;5.20;;;4.80;;
1577;SDS011;57623;53.608;10.004;2023-08-12T01:30:39;4.30;;;3.93;;
1577;SDS011;57623;53.608;10.004;2023-08-12T01:33:15;5.37;;;4.20;;
1577;SDS011;57623;53.608;10.004;2023-08-12T01:35:51;5.10;;;4.60;;
1577;SDS011;57623;53.608;10.004;2023-08-12T01:38:28;4.70;;;4.40;;
1577;SDS011;57623;53.608;10.004;2023-08-12T01:40:58;4.77;;;4.37;;
1577;SDS011;57623;53.608;10.004;2023-08-12T01:43:27;4.90;;;4.50;;
1577;SDS011;57623;53.608;10.004;2023-08-12T01:45:56;4.93;;;4.53;;
1577;SDS011;57623;53.608;10.004;2023-08-12T01:48:25;5.20;;;4.80;;
1577;SDS011;57623;53.608;10.004;2023-08-12T01:50:53;5.53;;;5.10;;
1577;SDS011;57623;53.608;10.004;2023-08-12T01:53:21;5.50;;;5.10;;
1577;SDS011;57623;53.608;10.004;2023-08-12T01:55:51;5.50;;;5.03;;
1577;SDS011;57623;53.608;10.004;2023-08-12T01:58:20;5.03;;;4.67;;
1577;SDS011;57623;53.608;10.004;2023-08-12T02:00:48;5.10;;;4.60;;
1577;SDS011;57623;53.608;10.004;2023-08-12T02:03:15;4.77;;;4.40;;
1577;SDS011;57623;53.608;10.004;2023-08-12T02:05:44;5.07;;;4.63;;
1577;SDS011;57623;53.608;10.004;2023-08-12T02:08:12;5.07;;;4.67;;
1577;SDS011;57623;53.608;10.004;2023-08-12T02:10:40;4.77;;;4.37;;
1577;SDS011;57623;53.608;10.004;2023-08-12T02:13:10;4.60;;;4.30;;
1577;SDS011;57623;53.608;10.004;2023-08-12T02:15:38;5.00;;;4.60;;
1577;SDS011;57623;53.608;10.004;2023-08-12T02:18:06;5.87;;;4.83;;
1577;SDS011;57623;53.608;10.004;2023-08-12T02:20:34;5.17;;;4.77;;
1577;SDS011;57623;53.608;10.004;2023-08-12T02:23:02;5.73;;;5.27;;
1577;SDS011;57623;53.608;10.004;2023-08-12T02:25:30;5.23;;;4.77;;
1577;SDS011;57623;53.608;10.004;2023-08-12T02:27:58;5.87;;;5.47;;
1577;SDS011;57623;53.608;10.004;2023-08-12T02:30:28;5.60;;;5.10;;
1577;SDS011;57623;53.608;10.004;2023-08-12T02:32:56;6.10;;;5.60;;
1577;SDS011;57623;53.608;10.004;2023-08-12T02:35:24;5.20;;;4.80;;
1577;SDS011;57623;53.608;10.004;2023-08-12T02:37:52;5.03;;;4.67;;
1577;SDS011;57623;53.608;10.004;2023-08-12T02:40:20;5.10;;;4.70;;
1577;SDS011;57623;53.608;10.004;2023-08-12T02:42:48;5.53;;;5.03;;
1577;SDS011;57623;53.608;10.004;2023-08-12T02:45:16;5.40;;;4.90;;
1577;SDS011;57623;53.608;10.004;2023-08-12T02:47:45;5.57;;;4.80;;
1577;SDS011;57623;53.608;10.004;2023-08-12T02:50:15;5.30;;;4.90;;
1577;SDS011;57623;53.608;10.004;2023-08-12T02:52:43;5.17;;;4.77;;
1577;SDS011;57623;53.608;10.004;2023-08-12T02:55:11;5.83;;;5.33;;
1577;SDS011;57623;53.608;10.004;2023-08-12T02:57:39;5.23;;;4.87;;
1577;SDS011;57623;53.608;10.004;2023-08-12T03:00:07;6.23;;;5.50;;
1577;SDS011;57623;53.608;10.004;2023-08-12T03:02:36;5.23;;;4.77;;
1577;SDS011;57623;53.608;10.004;2023-08-12T03:05:06;5.57;;;5.17;;
1577;SDS011;57623;53.608;10.004;2023-08-12T03:07:35;5.33;;;4.83;;
1577;SDS011;57623;53.608;10.004;2023-08-12T03:10:03;5.43;;;5.03;;
1577;SDS011;57623;53.608;10.004;2023-08-12T03:12:32;5.80;;;5.30;;
1577;SDS011;57623;53.608;10.004;2023-08-12T03:15:00;5.60;;;5.20;;
1577;SDS011;57623;53.608;10.004;2023-08-12T03:17:28;5.40;;;4.90;;
1577;SDS011;57623;53.608;10.004;2023-08-12T03:19:57;5.83;;;5.43;;
1577;SDS011;57623;53.608;10.004;2023-08-12T03:22:28;5.47;;;4.97;;
1577;SDS011;57623;53.608;10.004;2023-08-12T03:24:56;5.60;;;5.10;;
1577;SDS011;57623;53.608;10.004;2023-08-12T03:27:24;5.43;;;4.93;;
1577;SDS011;57623;53.608;10.004;2023-08-12T03:29:52;5.80;;;5.30;;
1577;SDS011;57623;53.608;10.004;2023-08-12T03:32:20;5.70;;;5.10;;
1577;SDS011;57623;53.608;10.004;2023-08-12T03:34:48;5.37;;;4.97;;
1577;SDS011;57623;53.608;10.004;2023-08-12T03:37:16;5.63;;;5.23;;
1577;SDS011;57623;53.608;10.004;2023-08-12T03:39:45;5.50;;;5.10;;
1577;SDS011;57623;53.608;10.004;2023-08-12T03:42:13;5.70;;;5.30;;
1577;SDS011;57623;53.608;10.004;2023-08-12T03:44:42;5.20;;;4.80;;
1577;SDS011;57623;53.608;10.004;2023-08-12T03:47:10;5.27;;;4.83;;
1577;SDS011;57623;53.608;10.004;2023-08-12T03:49:39;6.83;;;5.40;;
1577;SDS011;57623;53.608;10.004;2023-08-12T03:52:07;5.50;;;5.10;;
1577;SDS011;57623;53.608;10.004;2023-08-12T03:54:35;5.73;;;5.23;;
1577;SDS011;57623;53.608;10.004;2023-08-12T03:57:04;5.03;;;4.73;;
1577;SDS011;57623;53.608;10.004;2023-08-12T03:59:32;5.50;;;5.10;;
1577;SDS011;57623;53.608;10.004;2023-08-12T04:02:00;4.67;;;4.37;;
1577;SDS011;57623;53.608;10.004;2023-08-12T04:04:30;6.43;;;5.20;;
1577;SDS011;57623;53.608;10.004;2023-08-12T04:06:58;5.70;;;5.30;;
1577;SDS011;57623;53.608;10.004;2023-08-12T04:09:26;5.57;;;5.17;;
1577;SDS011;57623;53.608;10.004;2023-08-12T04:11:54;6.20;;;5.60;;
1577;SDS011;57623;53.608;10.004;2023-08-12T04:14:23;5.53;;;5.13;;
1577;SDS011;57623;53.608;10.004;2023-08-12T04:16:51;6.77;;;5.60;;
1577;SDS011;57623;53.608;10.004;2023-08-12T04:19:19;6.50;;;5.90;;
1577;SDS011;57623;53.608;10.004;2023-08-12T04:21:47;6.70;;;5.23;;
1577;SDS011;57623;53.608;10.004;2023-08-12T04:24:15;6.60;;;6.00;;
1577;SDS011;57623;53.608;10.004;2023-08-12T04:26:43;5.20;;;4.90;;
1577;SDS011;57623;53.608;10.004;2023-08-12T04:29:11;6.27;;;5.77;;
1577;SDS011;57623;53.608;10.004;2023-08-12T04:31:41;6.00;;;5.50;;
1577;SDS011;57623;53.608;10.004;2023-08-12T04:34:09;5.60;;;5.20;;
1577;SDS011;57623;53.608;10.004;2023-08-12T04:36:37;5.83;;;5.43;;
1577;SDS011;57623;53.608;10.004;2023-08-12T04:39:08;6.20;;;5.90;;
1577;SDS011;57623;53.608;10.004;2023-08-12T04:41:36;5.57;;;5.17;;
1577;SDS011;57623;53.608;10.004;2023-08-12T04:44:05;5.63;;;5.20;;
1577;SDS011;57623;53.608;10.004;2023-08-12T04:46:33;6.00;;;5.47;;
1577;SDS011;57623;53.608;10.004;2023-08-12T04:49:03;6.20;;;5.63;;
1577;SDS011;57623;53.608;10.004;2023-08-12T04:51:31;6.10;;;5.50;;
1577;SDS011;57623;53.608;10.004;2023-08-12T04:53:59;6.40;;;5.80;;
1577;SDS011;57623;53.608;10.004;2023-08-12T04:56:28;5.80;;;5.30;;
1577;SDS011;57623;53.608;10.004;2023-08-12T04:58:56;6.80;;;5.80;;
1577;SDS011;57623;53.608;10.004;2023-08-12T05:01:24;6.30;;;5.70;;
1577;SDS011;57623;53.608;10.004;2023-08-12T05:03:52;6.70;;;5.57;;
1577;SDS011;57623;53.608;10.004;2023-08-12T05:06:21;6.30;;;5.80;;
1577;SDS011;57623;53.608;10.004;2023-08-12T05:08:50;6.20;;;5.80;;
1577;SDS011;57623;53.608;10.004;2023-08-12T05:11:18;5.73;;;5.23;;
1577;SDS011;57623;53.608;10.004;2023-08-12T05:13:46;6.00;;;5.60;;
1577;SDS011;57623;53.608;10.004;2023-08-12T05:16:14;6.00;;;5.50;;
1577;SDS011;57623;53.608;10.004;2023-08-12T05:18:42;6.20;;;5.70;;
1577;SDS011;57623;53.608;10.004;2023-08-12T05:21:10;6.27;;;5.80;;
1577;SDS011;57623;53.608;10.004;2023-08-12T05:23:39;6.10;;;5.43;;
1577;SDS011;57623;53.608;10.004;2023-08-12T05:26:07;6.37;;;5.87;;
1577;SDS011;57623;53.608;10.004;2023-08-12T05:28:35;6.03;;;5.63;;
1577;SDS011;57623;53.608;10.004;2023-08-12T05:31:03;5.80;;;5.40;;
1577;SDS011;57623;53.608;10.004;2023-08-12T05:33:31;6.50;;;6.00;;
1577;SDS011;57623;53.608;10.004;2023-08-12T05:35:59;5.53;;;5.13;;
1577;SDS011;57623;53.608;10.004;2023-08-12T05:38:27;6.17;;;5.67;;
1577;SDS011;57623;53.608;10.004;2023-08-12T05:40:56;6.57;;;5.97;;
1577;SDS011;57623;53.608;10.004;2023-08-12T05:43:24;7.20;;;6.57;;
1577;SDS011;57623;53.608;10.004;2023-08-12T05:45:52;6.53;;;5.93;;
1577;SDS011;57623;53.608;10.004;2023-08-12T05:48:20;7.10;;;6.50;;
1577;SDS011;57623;53.608;10.004;2023-08-12T05:50:48;6.70;;;6.30;;
1577;SDS011;57623;53.608;10.004;2023-08-12T05:53:16;6.90;;;6.40;;
1577;SDS011;57623;53.608;10.004;2023-08-12T05:55:44;7.00;;;6.40;;
1577;SDS011;57623;53.608;10.004;2023-08-12T05:58:13;6.80;;;6.40;;
1577;SDS011;57623;53.608;10.004;2023-08-12T06:00:41;7.03;;;6.53;;
1577;SDS011;57623;53.608;10.004;2023-08-12T06:03:11;7.23;;;6.50;;
1577;SDS011;57623;53.608;10.004;2023-08-12T06:05:40;8.03;;;7.23;;
1577;SDS011;57623;53.608;10.004;2023-08-12T06:08:08;8.53;;;6.80;;
1577;SDS011;57623;53.608;10.004;2023-08-12T06:10:36;7.53;;;7.03;;
1577;SDS011;57623;53.608;10.004;2023-08-12T06:13:06;8.60;;;7.97;;
1577;SDS011;57623;53.608;10.004;2023-08-12T06:15:35;8.10;;;7.40;;
1577;SDS011;57623;53.608;10.004;2023-08-12T06:18:03;8.00;;;7.40;;
1577;SDS011;57623;53.608;10.004;2023-08-12T06:20:32;8.53;;;7.90;;
1577;SDS011;57623;53.608;10.004;2023-08-12T06:23:00;8.47;;;7.77;;
1577;SDS011;57623;53.608;10.004;2023-08-12T06:25:28;8.70;;;8.00;;
1577;SDS011;57623;53.608;10.004;2023-08-12T06:27:56;9.13;;;8.40;;
1577;SDS011;57623;53.608;10.004;2023-08-12T06:30:24;9.37;;;8.70;;
1577;SDS011;57623;53.608;10.004;2023-08-12T06:32:54;9.97;;;9.07;;
1577;SDS011;57623;53.608;10.004;2023-08-12T06:35:22;9.03;;;8.43;;
1577;SDS011;57623;53.608;10.004;2023-08-12T06:37:50;9.30;;;8.50;;
1577;SDS011;57623;53.608;10.004;2023-08-12T06:40:18;10.30;;;9.50;;
1577;SDS011;57623;53.608;10.004;2023-08-12T06:42:46;10.30;;;9.50;;
1577;SDS011;57623;53.608;10.004;2023-08-12T06:45:14;9.00;;;8.30;;
1577;SDS011;57623;53.608;10.004;2023-08-12T06:47:42;10.13;;;9.13;;
1577;SDS011;57623;53.608;10.004;2023-08-12T06:50:11;9.70;;;8.83;;
1577;SDS011;57623;53.608;10.004;2023-08-12T06:52:39;9.80;;;9.07;;
1577;SDS011;57623;53.608;10.004;2023-08-12T06:55:07;9.83;;;9.13;;
1577;SDS011;57623;53.608;10.004;2023-08-12T06:57:35;10.37;;;9.47;;
1577;SDS011;57623;53.608;10.004;2023-08-12T07:00:04;11.47;;;10.57;;
1577;SDS011;57623;53.608;10.004;2023-08-12T07:02:32;10.10;;;9.20;;
1577;SDS011;57623;53.608;10.004;2023-08-12T07:05:00;10.70;;;9.90;;
1577;SDS011;57623;53.608;10.004;2023-08-12T07:07:30;11.80;;;10.93;;
1577;SDS011;57623;53.608;10.004;2023-08-12T07:09:58;12.33;;;11.37;;
1577;SDS011;57623;53.608;10.004;2023-08-12T07:12:26;11.93;;;10.83;;
1577;SDS011;57623;53.608;10.004;2023-08-12T07:14:54;11.87;;;10.90;;
1577;SDS011;57623;53.608;10.004;2023-08-12T07:17:22;12.27;;;11.37;;
1577;SDS011;57623;53.608;10.004;2023-08-12T07:19:50;13.73;;;12.50;;
1577;SDS011;57623;53.608;10.004;2023-08-12T07:22:18;14.47;;;13.27;;
1577;SDS011;57623;53.608;10.004;2023-08-12T07:24:48;14.40;;;13.10;;
1577;SDS011;57623;53.608;10.004;2023-08-12T07:27:18;14.30;;;13.00;;
1577;SDS011;57623;53.608;10.004;2023-08-12T07:29:46;14.73;;;13.53;;
1577;SDS011;57623;53.608;10.004;2023-08-12T07:32:14;15.37;;;14.13;;
1577;SDS011;57623;53.608;10.004;2023-08-12T07:34:42;13.40;;;12.30;;
1577;SDS011;57623;53.608;10.004;2023-08-12T07:37:10;14.50;;;13.20;;
1577;SDS011;57623;53.608;10.004;2023-08-12T07:39:38;15.00;;;13.77;;
1577;SDS011;57623;53.608;10.004;2023-08-12T07:42:08;15.33;;;14.03;;
1577;SDS011;57623;53.608;10.004;2023-08-12T07:44:36;14.90;;;13.70;;
1577;SDS011;57623;53.608;10.004;2023-08-12T07:47:04;15.77;;;14.47;;
1577;SDS011;57623;53.608;10.004;2023-08-12T07:49:33;16.73;;;15.37;;
1577;SDS011;57623;53.608;10.004;2023-08-12T07:52:01;16.10;;;14.60;;
1577;SDS011;57623;53.608;10.004;2023-08-12T07:54:29;17.80;;;16.50;;
1577;SDS011;57623;53.608;10.004;2023-08-12T07:56:57;17.17;;;15.83;;
1577;SDS011;57623;53.608;10.004;2023-08-12T07:59:26;18.07;;;16.57;;
1577;SDS011;57623;53.608;10.004;2023-08-12T08:01:54;17.97;;;16.47;;
1577;SDS011;57623;53.608;10.004;2023-08-12T08:04:22;15.77;;;14.57;;
1577;SDS011;57623;53.608;10.004;2023-08-12T08:06:50;16.80;;;15.40;;
1577;SDS011;57623;53.608;10.004;2023-08-12T08:09:18;16.13;;;14.83;;
1577;SDS011;57623;53.608;10.004;2023-08-12T08:11:46;17.00;;;15.43;;
1577;SDS011;57623;53.608;10.004;2023-08-12T08:14:14;16.17;;;14.63;;
1577;SDS011;57623;53.608;10.004;2023-08-12T08:16:43;15.83;;;14.43;;
1577;SDS011;57623;53.608;10.004;2023-08-12T08:19:12;16.90;;;15.53;;
1577;SDS011;57623;53.608;10.004;2023-08-12T08:21:40;16.27;;;14.83;;
1577;SDS011;57623;53.608;10.004;2023-08-12T08:24:08;16.07;;;14.67;;
1577;SDS011;57623;53.608;10.004;2023-08-12T08:26:37;14.23;;;13.23;;
1577;SDS011;57623;53.608;10.004;2023-08-12T08:29:06;14.93;;;13.83;;
1577;SDS011;57623;53.608;10.004;2023-08-12T08:31:35;14.27;;;13.10;;
1577;SDS011;57623;53.608;10.004;2023-08-12T08:34:04;15.37;;;14.03;;
1577;SDS011;57623;53.608;10.004;2023-08-12T08:36:33;15.20;;;14.00;;
1577;SDS011;57623;53.608;10.004;2023-08-12T08:39:01;15.03;;;13.73;;
1577;SDS011;57623;53.608;10.004;2023-08-12T08:41:30;14.90;;;13.53;;
1577;SDS011;57623;53.608;10.004;2023-08-12T08:44:00;14.30;;;13.20;;
1577;SDS011;57623;53.608;10.004;2023-08-12T08:46:30;15.17;;;13.67;;
1577;SDS011;57623;53.608;10.004;2023-08-12T08:48:58;13.30;;;12.20;;
1577;SDS011;57623;53.608;10.004;2023-08-12T08:51:28;14.30;;;13.00;;
1577;SDS011;57623;53.608;10.004;2023-08-12T08:53:58;14.43;;;13.23;;
1577;SDS011;57623;53.608;10.004;2023-08-12T08:56:29;15.17;;;13.80;;
1577;SDS011;57623;53.608;10.004;2023-08-12T08:58:58;13.43;;;12.23;;
1577;SDS011;57623;53.608;10.004;2023-08-12T09:01:26;13.10;;;12.10;;
1577;SDS011;57623;53.608;10.004;2023-08-12T09:03:56;13.20;;;12.10;;
1577;SDS011;57623;53.608;10.004;2023-08-12T09:06:25;11.37;;;10.40;;
1577;SDS011;57623;53.608;10.004;2023-08-12T09:08:56;11.33;;;10.33;;
1577;SDS011;57623;53.608;10.004;2023-08-12T09:11:24;11.97;;;10.80;;
1577;SDS011;57623;53.608;10.004;2023-08-12T09:13:52;11.93;;;10.93;;
1577;SDS011;57623;53.608;10.004;2023-08-12T09:16:21;12.80;;;11.73;;
1577;SDS011;57623;53.608;10.004;2023-08-12T09:18:53;11.63;;;10.43;;
1577;SDS011;57623;53.608;10.004;2023-08-12T09:21:22;11.47;;;10.47;;
1577;SDS011;57623;53.608;10.004;2023-08-12T09:23:51;10.93;;;10.03;;
1577;SDS011;57623;53.608;10.004;2023-08-12T09:26:20;11.40;;;10.37;;
1577;SDS011;57623;53.608;10.004;2023-08-12T09:28:48;10.90;;;9.97;;
1577;SDS011;57623;53.608;10.004;2023-08-12T09:31:23;10.40;;;9.57;;
1577;SDS011;57623;53.608;10.004;2023-08-12T09:33:52;10.40;;;9.60;;
1577;SDS011;57623;53.608;10.004;2023-08-12T09:36:25;12.13;;;10.93;;
1577;SDS011;57623;53.608;10.004;2023-08-12T09:38:55;11.43;;;10.43;;
1577;SDS011;57623;53.608;10.004;2023-08-12T09:41:25;11.70;;;10.60;;
1577;SDS011;57623;53.608;10.004;2023-08-12T09:43:55;9.47;;;8.77;;
1577;SDS011;57623;53.608;10.004;2023-08-12T09:46:23;9.87;;;9.07;;
1577;SDS011;57623;53.608;10.004;2023-08-12T09:48:52;8.70;;;8.00;;
1577;SDS011;57623;53.608;10.004;2023-08-12T09:51:20;10.00;;;9.20;;
1577;SDS011;57623;53.608;10.004;2023-08-12T09:53:48;11.90;;;10.80;;
1577;SDS011;57623;53.608;10.004;2023-08-12T09:56:17;12.57;;;11.50;;
1577;SDS011;57623;53.608;10.004;2023-08-12T09:58:49;11.07;;;10.27;;
1577;SDS011;57623;53.608;10.004;2023-08-12T10:04:33;14.67;;;13.37;;
1577;SDS011;57623;53.608;10.004;2023-08-12T10:07:04;14.70;;;13.37;;
1577;SDS011;57623;53.608;10.004;2023-08-12T10:09:33;15.63;;;14.43;;
1577;SDS011;57623;53.608;10.004;2023-08-12T10:12:04;15.73;;;14.43;;
1577;SDS011;57623;53.608;10.004;2023-08-12T10:14:35;14.90;;;13.50;;
1577;SDS011;57623;53.608;10.004;2023-08-12T10:17:03;14.07;;;12.87;;
1577;SDS011;57623;53.608;10.004;2023-08-12T10:19:32;17.03;;;15.60;;
1577;SDS011;57623;53.608;10.004;2023-08-12T10:22:02;16.77;;;15.30;;
1577;SDS011;57623;53.608;10.004;2023-08-12T10:24:31;16.40;;;15.00;;
1577;SDS011;57623;53.608;10.004;2023-08-12T10:27:01;15.80;;;14.50;;
1577;SDS011;57623;53.608;10.004;2023-08-12T10:29:29;15.63;;;14.23;;
1577;SDS011;57623;53.608;10.004;2023-08-12T10:31:59;15.63;;;14.40;;
1577;SDS011;57623;53.608;10.004;2023-08-12T10:34:29;16.30;;;14.83;;
1577;SDS011;57623;53.608;10.004;2023-08-12T10:37:00;15.60;;;14.00;;
1577;SDS011;57623;53.608;10.004;2023-08-12T10:39:31;16.33;;;15.03;;
1577;SDS011;57623;53.608;10.004;2023-08-12T10:42:00;14.97;;;13.77;;
1577;SDS011;57623;53.608;10.004;2023-08-12T10:44:39;14.10;;;12.80;;
1577;SDS011;57623;53.608;10.004;2023-08-12T10:47:09;14.97;;;13.77;;
1577;SDS011;57623;53.608;10.004;2023-08-12T10:49:38;16.47;;;15.13;;
1577;SDS011;57623;53.608;10.004;2023-08-12T10:52:19;15.87;;;14.57;;
1577;SDS011;57623;53.608;10.004;2023-08-12T10:54:53;14.40;;;13.20;;
1577;SDS011;57623;53.608;10.004;2023-08-12T10:57:34;13.50;;;12.40;;
1577;SDS011;57623;53.608;10.004;2023-08-12T11:00:04;12.63;;;11.57;;
1577;SDS011;57623;53.608;10.004;2023-08-12T11:02:39;12.90;;;11.90;;
1577;SDS011;57623;53.608;10.004;2023-08-12T11:05:07;12.70;;;11.60;;
1577;SDS011;57623;53.608;10.004;2023-08-12T11:07:37;12.50;;;11.43;;
1577;SDS011;57623;53.608;10.004;2023-08-12T11:10:10;11.80;;;10.80;;
1577;SDS011;57623;53.608;10.004;2023-08-12T11:12:41;14.43;;;13.20;;
1577;SDS011;57623;53.608;10.004;2023-08-12T11:15:13;11.60;;;10.70;;
1577;SDS011;57623;53.608;10.004;2023-08-12T11:17:42;10.53;;;9.73;;
1577;SDS011;57623;53.608;10.004;2023-08-12T11:20:12;9.63;;;8.83;;
1577;SDS011;57623;53.608;10.004;2023-08-12T11:22:41;11.30;;;10.30;;
1577;SDS011;57623;53.608;10.004;2023-08-12T11:25:11;10.17;;;9.37;;
1577;SDS011;57623;53.608;10.004;2023-08-12T11:27:41;9.07;;;8.40;;
1577;SDS011;57623;53.608;10.004;2023-08-12T11:30:10;8.10;;;7.50;;
1577;SDS011;57623;53.608;10.004;2023-08-12T11:32:43;8.70;;;7.80;;
1577;SDS011;57623;53.608;10.004;2023-08-12T11:35:12;8.73;;;8.10;;
1577;SDS011;57623;53.608;10.004;2023-08-12T11:37:42;7.70;;;7.10;;
1577;SDS011;57623;53.608;10.004;2023-08-12T11:40:13;7.63;;;7.00;;
1577;SDS011;57623;53.608;10.004;2023-08-12T11:42:43;8.03;;;7.43;;
1577;SDS011;57623;53.608;10.004;2023-08-12T11:45:13;8.33;;;7.53;;
1577;SDS011;57623;53.608;10.004;2023-08-12T11:47:44;7.80;;;7.20;;
1577;SDS011;57623;53.608;10.004;2023-08-12T11:50:19;7.87;;;7.20;;
1577;SDS011;57623;53.608;10.004;2023-08-12T11:52:47;7.53;;;7.03;;
1577;SDS011;57623;53.608;10.004;2023-08-12T11:55:16;7.60;;;6.90;;
1577;SDS011;57623;53.608;10.004;2023-08-12T11:57:45;7.80;;;7.10;;
1577;SDS011;57623;53.608;10.004;2023-08-12T12:00:13;7.07;;;6.53;;
1577;SDS011;57623;53.608;10.004;2023-08-12T12:02:49;7.43;;;6.80;;
1577;SDS011;57623;53.608;10.004;2023-08-12T12:05:21;7.60;;;6.90;;
1577;SDS011;57623;53.608;10.004;2023-08-12T12:07:51;7.90;;;7.10;;
1577;SDS011;57623;53.608;10.004;2023-08-12T12:10:20;8.20;;;7.30;;
1577;SDS011;57623;53.608;10.004;2023-08-12T12:12:57;7.80;;;7.30;;
1577;SDS011;57623;53.608;10.004;2023-08-12T12:15:26;7.50;;;6.90;;
1577;SDS011;57623;53.608;10.004;2023-08-12T12:17:56;7.20;;;6.70;;
1577;SDS011;57623;53.608;10.004;2023-08-12T12:20:25;8.30;;;7.50;;
1577;SDS011;57623;53.608;10.004;2023-08-12T12:22:55;7.77;;;7.17;;
1577;SDS011;57623;53.608;10.004;2023-08-12T12:25:23;7.70;;;7.10;;
1577;SDS011;57623;53.608;10.004;2023-08-12T12:27:52;8.37;;;7.73;;
1577;SDS011;57623;53.608;10.004;2023-08-12T12:30:20;8.00;;;7.50;;
1577;SDS011;57623;53.608;10.004;2023-08-12T12:32:48;7.70;;;7.07;;
1577;SDS011;57623;53.608;10.004;2023-08-12T12:35:19;11.10;;;8.20;;
1577;SDS011;57623;53.608;10.004;2023-08-12T12:37:47;8.17;;;7.50;;
1577;SDS011;57623;53.608;10.004;2023-08-12T12:40:15;8.57;;;7.87;;
1577;SDS011;57623;53.608;10.004;2023-08-12T12:42:43;7.90;;;7.30;;
1577;SDS011;57623;53.608;10.004;2023-08-12T12:45:11;8.53;;;7.50;;
1577;SDS011;57623;53.608;10.004;2023-08-12T12:47:39;8.00;;;7.30;;
1577;SDS011;57623;53.608;10.004;2023-08-12T12:50:07;8.53;;;7.60;;
1577;SDS011;57623;53.608;10.004;2023-08-12T12:52:37;8.17;;;7.57;;
1577;SDS011;57623;53.608;10.004;2023-08-12T12:55:07;7.63;;;7.03;;
1577;SDS011;57623;53.608;10.004;2023-08-12T12:57:36;7.77;;;7.17;;
1577;SDS011;57623;53.608;10.004;2023-08-12T13:00:04;8.37;;;7.67;;
1577;SDS011;57623;53.608;10.004;2023-08-12T13:02:37;9.13;;;8.33;;
1577;SDS011;57623;53.608;10.004;2023-08-12T13:05:06;8.10;;;7.37;;
1577;SDS011;57623;53.608;10.004;2023-08-12T13:07:35;8.83;;;8.03;;
1577;SDS011;57623;53.608;10.004;2023-08-12T13:10:04;8.47;;;7.87;;
1577;SDS011;57623;53.608;10.004;2023-08-12T13:12:33;8.93;;;8.23;;
1577;SDS011;57623;53.608;10.004;2023-08-12T13:15:01;8.70;;;8.00;;
1577;SDS011;57623;53.608;10.004;2023-08-12T13:17:29;8.07;;;7.43;;
1577;SDS011;57623;53.608;10.004;2023-08-12T13:19:57;8.37;;;7.67;;
1577;SDS011;57623;53.608;10.004;2023-08-12T13:22:25;8.57;;;7.87;;
1577;SDS011;57623;53.608;10.004;2023-08-12T13:24:55;7.93;;;7.23;;
1577;SDS011;57623;53.608;10.004;2023-08-12T13:27:23;8.17;;;7.60;;
1577;SDS011;57623;53.608;10.004;2023-08-12T13:29:51;9.50;;;8.70;;
1577;SDS011;57623;53.608;10.004;2023-08-12T13:32:19;9.73;;;8.97;;
1577;SDS011;57623;53.608;10.004;2023-08-12T13:34:48;9.10;;;8.30;;
1577;SDS011;57623;53.608;10.004;2023-08-12T13:37:16;9.57;;;8.87;;
1577;SDS011;57623;53.608;10.004;2023-08-12T13:39:45;9.20;;;8.50;;
1577;SDS011;57623;53.608;10.004;2023-08-12T13:42:14;10.33;;;9.47;;
1577;SDS011;57623;53.608;10.004;2023-08-12T13:44:45;10.27;;;9.50;;
1577;SDS011;57623;53.608;10.004;2023-08-12T13:47:18;10.33;;;9.40;;
1577;SDS011;57623;53.608;10.004;2023-08-12T13:49:46;11.10;;;10.30;;
1577;SDS011;57623;53.608;10.004;2023-08-12T13:52:14;11.03;;;10.13;;
1577;SDS011;57623;53.608;10.004;2023-08-12T13:54:44;13.00;;;11.80;;
1577;SDS011;57623;53.608;10.004;2023-08-12T13:57:12;12.13;;;11.13;;
1577;SDS011;57623;53.608;10.004;2023-08-12T13:59:42;12.70;;;11.80;;
1577;SDS011;57623;53.608;10.004;2023-08-12T14:02:10;12.73;;;11.63;;
1577;SDS011;57623;53.608;10.004;2023-08-12T14:04:39;12.37;;;11.27;;
1577;SDS011;57623;53.608;10.004;2023-08-12T14:07:07;13.90;;;12.50;;
1577;SDS011;57623;53.608;10.004;2023-08-12T14:09:35;13.37;;;12.30;;
1577;SDS011;57623;53.608;10.004;2023-08-12T14:12:03;11.37;;;10.47;;
1577;SDS011;57623;53.608;10.004;2023-08-12T14:14:34;12.67;;;11.67;;
1577;SDS011;57623;53.608;10.004;2023-08-12T14:17:02;13.40;;;12.30;;
1577;SDS011;57623;53.608;10.004;2023-08-12T14:19:31;13.80;;;12.50;;
1577;SDS011;57623;53.608;10.004;2023-08-12T14:21:59;13.20;;;12.10;;
1577;SDS011;57623;53.608;10.004;2023-08-12T14:24:27;13.60;;;12.47;;
1577;SDS011;57623;53.608;10.004;2023-08-12T14:26:54;13.77;;;12.67;;
1577;SDS011;57623;53.608;10.004;2023-08-12T14:29:22;13.80;;;12.63;;
1577;SDS011;57623;53.608;10.004;2023-08-12T14:31:52;13.47;;;12.23;;
1577;SDS011;57623;53.608;10.004;2023-08-12T14:34:20;14.27;;;13.10;;
1577;SDS011;57623;53.608;10.004;2023-08-12T14:36:48;13.77;;;12.57;;
1577;SDS011;57623;53.608;10.004;2023-08-12T14:39:16;12.90;;;11.90;;
1577;SDS011;57623;53.608;10.004;2023-08-12T14:41:44;13.07;;;12.00;;
1577;SDS011;57623;53.608;10.004;2023-08-12T14:44:12;12.53;;;11.63;;
1577;SDS011;57623;53.608;10.004;2023-08-12T14:46:41;11.50;;;10.60;;
1577;SDS011;57623;53.608;10.004;2023-08-12T14:49:10;11.10;;;10.30;;
1577;SDS011;57623;53.608;10.004;2023-08-12T14:51:38;10.50;;;9.80;;